Prospector, Canada
Current Conditions -  °F | °C
As of 1:00 PM on Tuesday 21 Oct 2014 (Local Time) from CYQD Reporting Station
Few Clouds Few Clouds  
Wind Chill: 57°   Ceiling: Unl
Heat Index: 57°   Visibility: 15mi
Dew Point: 43°   Wind: 16mph
Humidity: 59%   Direction: 150°SSE
Pressure: 29.61"   Gusts: NA
Location:  52.95°N, 101.27°W
Report Text: CYQD 211800Z 15014KT 15SM FEW220 14/06 A2961 RMK CS1 SLP034
Loading
Personal Weather Stations






























Interactive Weather Map New forecast layout! Learn more

10-Day Weather Forecast

Advertisements
Track Severe Weather on mobile